createdAt,value
2022-10-02T00:00:10.399Z,0.93
2022-10-02T00:03:05.357Z,1.17
2022-10-02T00:06:24.986Z,1.05
2022-10-02T00:09:19.362Z,1.17
2022-10-02T00:12:08.695Z,0.98
2022-10-02T00:15:02.673Z,0.90
2022-10-02T00:17:51.342Z,1.02
2022-10-02T00:21:00.142Z,1.00
2022-10-02T00:23:51.516Z,1.20
2022-10-02T00:26:51.175Z,1.48
2022-10-02T00:29:52.628Z,0.90
2022-10-02T00:32:54.285Z,1.10
2022-10-02T00:36:12.824Z,1.17
2022-10-02T00:39:04.660Z,1.17
2022-10-02T00:42:22.082Z,1.10
2022-10-02T00:45:44.990Z,1.50
2022-10-02T00:48:42.067Z,1.23
2022-10-02T00:51:47.164Z,1.00
2022-10-02T00:54:58.415Z,0.98
2022-10-02T00:58:02.243Z,1.58
2022-10-02T01:00:59.439Z,1.20
2022-10-02T01:03:53.320Z,1.50
2022-10-02T01:06:39.342Z,1.10
2022-10-02T01:09:26.172Z,1.30
2022-10-02T01:12:12.868Z,0.98
2022-10-02T01:14:58.286Z,1.52
2022-10-02T01:17:45.459Z,1.10
2022-10-02T01:20:42.315Z,1.17
2022-10-02T01:23:36.686Z,1.63
2022-10-02T01:26:22.791Z,2.17
2022-10-02T01:29:08.292Z,1.40
2022-10-02T01:31:54.519Z,1.60
2022-10-02T01:34:40.621Z,1.50
2022-10-02T01:37:32.502Z,1.55
2022-10-02T01:40:26.528Z,1.40
2022-10-02T01:43:14.860Z,1.60
2022-10-02T01:46:19.239Z,1.20
2022-10-02T01:49:35.070Z,1.55
2022-10-02T01:52:23.759Z,1.75
2022-10-02T01:55:18.790Z,1.73
2022-10-02T01:58:19.793Z,1.52
2022-10-02T02:01:28.213Z,1.17
2022-10-02T02:04:24.379Z,1.10
2022-10-02T02:07:27.122Z,1.40
2022-10-02T02:10:32.777Z,1.23
2022-10-02T02:13:39.503Z,1.27
2022-10-02T02:16:27.329Z,1.80
2022-10-02T02:19:27.791Z,1.27
2022-10-02T02:22:32.902Z,1.50
2022-10-02T02:25:20.883Z,1.38
2022-10-02T02:28:12.408Z,1.30
2022-10-02T02:31:00.678Z,1.60
2022-10-02T02:33:51.255Z,1.48
2022-10-02T02:36:43.202Z,1.52
2022-10-02T02:39:34.332Z,1.23
2022-10-02T02:42:26.024Z,1.67
2022-10-02T02:45:21.416Z,1.20
2022-10-02T02:48:12.827Z,1.23
2022-10-02T02:51:09.338Z,1.48
2022-10-02T02:54:07.683Z,1.17
2022-10-02T02:56:56.894Z,1.60
2022-10-02T02:59:45.812Z,1.30
2022-10-02T03:02:31.673Z,1.33
2022-10-02T03:05:19.228Z,1.30
2022-10-02T03:08:19.151Z,1.48
2022-10-02T03:11:11.072Z,1.27
2022-10-02T03:14:25.667Z,1.77
2022-10-02T03:17:29.138Z,1.17
2022-10-02T03:20:39.837Z,1.40
2022-10-02T03:23:56.309Z,1.17
2022-10-02T03:26:50.381Z,1.33
2022-10-02T03:29:59.451Z,1.33
2022-10-02T03:32:46.878Z,1.27
2022-10-02T03:35:33.649Z,1.17
2022-10-02T03:38:23.244Z,1.27
2022-10-02T03:41:09.007Z,1.13
2022-10-02T03:43:54.923Z,1.52
2022-10-02T03:46:40.743Z,1.30
2022-10-02T03:49:26.667Z,1.33
2022-10-02T03:52:16.993Z,1.42
2022-10-02T03:55:05.567Z,1.33
2022-10-02T03:57:52.898Z,1.27
2022-10-02T04:00:43.322Z,1.02
2022-10-02T04:03:39.136Z,1.40
2022-10-02T04:06:36.328Z,1.30
2022-10-02T04:09:34.003Z,1.42
2022-10-02T04:12:28.302Z,1.13
2022-10-02T04:15:25.986Z,1.35
2022-10-02T04:18:41.508Z,1.40
2022-10-02T04:21:44.625Z,1.40
2022-10-02T04:24:39.090Z,1.40
2022-10-02T04:27:39.892Z,1.30
2022-10-02T04:30:26.184Z,1.35
2022-10-02T04:33:18.996Z,1.27
2022-10-02T04:36:23.166Z,1.23
2022-10-02T04:39:33.249Z,1.58
2022-10-02T04:42:37.803Z,1.70
2022-10-02T04:45:55.908Z,0.90
2022-10-02T04:49:03.151Z,1.20
2022-10-02T04:52:27.277Z,1.00
2022-10-02T04:58:26.449Z,1.50
2022-10-02T05:01:40.218Z,1.30
2022-10-02T05:05:03.766Z,1.30
2022-10-02T05:08:02.807Z,1.30
2022-10-02T05:10:57.366Z,1.30
2022-10-02T05:14:05.286Z,1.30
2022-10-02T05:17:20.672Z,1.50
2022-10-02T05:20:23.718Z,1.50
2022-10-02T05:23:27.953Z,1.52
2022-10-02T05:26:35.632Z,1.30
2022-10-02T05:29:33.602Z,1.42
2022-10-02T05:32:31.659Z,1.67
2022-10-02T05:35:24.436Z,1.50
2022-10-02T05:38:41.185Z,1.23
2022-10-02T05:41:36.389Z,1.77
2022-10-02T05:44:35.834Z,1.83
2022-10-02T05:47:35.577Z,1.60
2022-10-02T05:50:30.560Z,1.40
2022-10-02T05:53:45.443Z,1.63
2022-10-02T05:56:44.746Z,2.00
2022-10-02T05:59:57.175Z,1.60
2022-10-02T06:02:42.466Z,1.50
2022-10-02T06:05:47.574Z,1.75
2022-10-02T06:08:41.199Z,1.95
2022-10-02T06:11:26.927Z,1.50
2022-10-02T06:14:33.792Z,1.73
2022-10-02T06:17:26.187Z,1.83
2022-10-02T06:20:20.961Z,1.75
2022-10-02T06:23:13.551Z,1.65
2022-10-02T06:26:15.275Z,1.58
2022-10-02T06:29:15.994Z,1.30
2022-10-02T06:32:09.036Z,1.50
2022-10-02T06:34:54.574Z,1.45
2022-10-02T06:38:10.815Z,1.10
2022-10-02T06:41:08.128Z,1.45
2022-10-02T06:44:02.571Z,1.10
2022-10-02T06:47:25.863Z,1.63
2022-10-02T06:51:00.167Z,1.70
2022-10-02T06:54:11.843Z,1.20
2022-10-02T06:58:03.290Z,1.20
2022-10-02T07:01:10.602Z,1.10
2022-10-02T07:04:27.933Z,1.00
2022-10-02T07:07:16.804Z,1.67
2022-10-02T07:10:05.197Z,1.00
2022-10-02T07:12:54.078Z,1.77
2022-10-02T07:15:57.959Z,1.95
2022-10-02T07:19:03.007Z,1.40
2022-10-02T07:21:51.462Z,1.40
2022-10-02T07:25:02.230Z,1.55
2022-10-02T07:27:52.489Z,1.27
2022-10-02T07:31:05.180Z,1.95
2022-10-02T07:34:15.566Z,1.40
2022-10-02T07:37:26.816Z,1.60
2022-10-02T07:40:24.562Z,1.50
2022-10-02T07:43:30.166Z,1.42
2022-10-02T07:46:26.823Z,1.38
2022-10-02T07:49:58.910Z,1.52
2022-10-02T07:53:00.418Z,1.40
2022-10-02T07:55:53.136Z,1.35
2022-10-02T07:58:54.503Z,1.55
2022-10-02T08:01:41.643Z,1.20
2022-10-02T08:04:37.160Z,1.20
2022-10-02T08:07:23.121Z,1.45
2022-10-02T08:10:14.077Z,1.20
2022-10-02T08:13:23.586Z,1.33
2022-10-02T08:16:14.866Z,1.45
2022-10-02T08:19:07.477Z,1.50
2022-10-02T08:22:10.167Z,1.50
2022-10-02T08:25:13.507Z,1.52
2022-10-02T08:28:07.640Z,1.30
2022-10-02T08:30:53.806Z,1.30
2022-10-02T08:33:42.533Z,1.30
2022-10-02T08:36:37.821Z,1.30
2022-10-02T08:39:45.222Z,1.25
2022-10-02T08:42:46.666Z,1.20
2022-10-02T08:45:42.145Z,1.40
2022-10-02T08:48:56.032Z,1.15
2022-10-02T08:52:05.699Z,1.17
2022-10-02T08:55:10.513Z,1.63
2022-10-02T08:58:23.568Z,1.30
2022-10-02T09:01:09.438Z,1.73
2022-10-02T09:04:19.946Z,1.40
2022-10-02T09:07:08.103Z,1.20
2022-10-02T09:10:22.912Z,1.23
2022-10-02T09:13:40.195Z,1.30
2022-10-02T09:16:29.121Z,1.45
2022-10-02T09:19:39.842Z,1.45
2022-10-02T09:22:53.287Z,1.30
2022-10-02T09:28:36.910Z,1.20
2022-10-02T09:31:41.259Z,1.02
2022-10-02T09:34:58.424Z,1.40
2022-10-02T09:38:16.432Z,1.70
2022-10-02T09:41:36.892Z,1.60
2022-10-02T09:44:29.175Z,1.20
2022-10-02T09:47:48.152Z,1.48
2022-10-02T09:51:05.465Z,1.65
2022-10-02T09:54:05.722Z,1.70
2022-10-02T09:57:20.247Z,1.83
2022-10-02T10:00:37.840Z,1.85
2022-10-02T10:03:36.538Z,1.35
2022-10-02T10:06:40.758Z,1.85
2022-10-02T10:09:36.441Z,1.50
2022-10-02T10:12:22.157Z,1.73
2022-10-02T10:15:31.010Z,1.92
2022-10-02T10:18:47.973Z,1.70
2022-10-02T10:21:50.626Z,1.80
2022-10-02T10:25:10.752Z,1.57
2022-10-02T10:28:21.334Z,1.85
2022-10-02T10:31:26.101Z,1.75
2022-10-02T10:34:39.830Z,1.60
2022-10-02T10:37:47.539Z,1.90
2022-10-02T10:40:51.659Z,1.95
2022-10-02T10:44:08.258Z,2.00
2022-10-02T10:47:18.203Z,1.90
2022-10-02T10:50:25.284Z,2.25
2022-10-02T10:53:28.346Z,1.60
2022-10-02T10:56:30.009Z,1.88
2022-10-02T10:59:53.790Z,1.33
2022-10-02T11:03:04.584Z,1.50
2022-10-02T11:06:05.442Z,2.08
2022-10-02T11:09:04.700Z,1.65
2022-10-02T11:11:57.946Z,1.80
2022-10-02T11:15:19.201Z,2.38
2022-10-02T11:18:39.109Z,1.85
2022-10-02T11:22:03.393Z,1.70
2022-10-02T11:25:00.815Z,2.08
2022-10-02T11:28:22.457Z,2.08
2022-10-02T11:31:41.370Z,1.60
2022-10-02T11:34:52.810Z,2.20
2022-10-02T11:38:16.383Z,2.10
2022-10-02T11:41:20.808Z,2.13
2022-10-02T11:44:44.962Z,2.05
2022-10-02T11:47:30.663Z,1.65
2022-10-02T11:51:00.727Z,1.67
2022-10-02T11:54:11.279Z,2.10
2022-10-02T11:57:17.636Z,1.70
2022-10-02T12:00:14.210Z,1.80
2022-10-02T12:03:05.632Z,2.03
2022-10-02T12:06:03.983Z,2.30
2022-10-02T12:08:56.142Z,2.13
2022-10-02T12:11:53.134Z,1.90
2022-10-02T12:14:47.639Z,2.55
2022-10-02T12:17:33.202Z,2.67
2022-10-02T12:21:09.802Z,2.55
2022-10-02T12:24:32.906Z,2.20
2022-10-02T12:27:27.386Z,2.13
2022-10-02T12:30:42.098Z,1.90
2022-10-02T12:33:44.222Z,2.42
2022-10-02T12:36:45.375Z,2.83
2022-10-02T12:39:52.785Z,2.10
2022-10-02T12:43:06.756Z,2.40
2022-10-02T12:46:19.360Z,2.15
2022-10-02T12:49:37.691Z,2.13
2022-10-02T12:52:24.111Z,2.30
2022-10-02T12:55:32.503Z,2.55
2022-10-02T12:58:42.631Z,2.03
2022-10-02T13:01:57.490Z,2.25
2022-10-02T13:04:49.714Z,2.10
2022-10-02T13:08:09.626Z,2.20
2022-10-02T13:11:09.839Z,2.25
2022-10-02T13:14:33.195Z,1.83
2022-10-02T13:17:35.922Z,1.67
2022-10-02T13:20:49.219Z,2.40
2022-10-02T13:23:42.028Z,2.03
2022-10-02T13:26:56.425Z,1.85
2022-10-02T13:30:06.999Z,2.33
2022-10-02T13:32:55.696Z,2.53
2022-10-02T13:36:06.872Z,1.60
2022-10-02T13:39:07.425Z,2.20
2022-10-02T13:42:11.839Z,1.83
2022-10-02T13:45:29.616Z,2.22
2022-10-02T13:48:31.366Z,2.03
2022-10-02T13:51:51.735Z,2.10
2022-10-02T13:54:52.776Z,1.75
2022-10-02T13:57:45.879Z,1.65
2022-10-02T14:00:37.854Z,1.92
2022-10-02T14:03:52.574Z,2.03
2022-10-02T14:07:09.670Z,1.65
2022-10-02T14:10:11.239Z,2.38
2022-10-02T14:13:15.410Z,1.95
2022-10-02T14:16:38.539Z,1.88
2022-10-02T14:19:36.170Z,2.15
2022-10-02T14:22:30.879Z,2.38
2022-10-02T14:25:26.444Z,1.60
2022-10-02T14:28:37.474Z,2.08
2022-10-02T14:32:00.751Z,1.88
2022-10-02T14:35:02.839Z,1.88
2022-10-02T14:37:48.127Z,2.10
2022-10-02T14:40:50.972Z,1.85
2022-10-02T14:43:55.042Z,1.43
2022-10-02T14:46:50.817Z,1.40
2022-10-02T14:50:04.010Z,2.05
2022-10-02T14:52:51.447Z,2.10
2022-10-02T14:56:14.127Z,2.10
2022-10-02T14:59:17.843Z,2.03
2022-10-02T15:02:08.748Z,2.10
2022-10-02T15:05:17.154Z,2.13
2022-10-02T15:08:11.646Z,1.75
2022-10-02T15:10:58.014Z,1.70
2022-10-02T15:13:49.258Z,1.92
2022-10-02T15:17:05.466Z,1.65
2022-10-02T15:20:03.828Z,1.50
2022-10-02T15:23:03.987Z,2.15
2022-10-02T15:26:17.407Z,1.70
2022-10-02T15:29:38.731Z,1.70
2022-10-02T15:33:07.448Z,1.67
2022-10-02T15:36:19.491Z,1.95
2022-10-02T15:39:32.635Z,2.28
2022-10-02T15:42:49.438Z,1.47
2022-10-02T15:45:54.824Z,1.17
2022-10-02T15:49:01.646Z,1.67
2022-10-02T15:52:00.674Z,1.38
2022-10-02T15:55:29.845Z,1.52
2022-10-02T15:59:05.229Z,1.50
2022-10-02T16:01:53.832Z,1.30
2022-10-02T16:04:58.563Z,1.80
2022-10-02T16:08:24.702Z,1.60
2022-10-02T16:11:19.207Z,1.70
2022-10-02T16:14:06.006Z,1.98
2022-10-02T16:16:58.559Z,1.45
2022-10-02T16:19:50.359Z,1.27
2022-10-02T16:23:11.315Z,1.58
2022-10-02T16:26:35.228Z,1.23
2022-10-02T16:29:26.391Z,1.40
2022-10-02T16:32:30.998Z,1.42
2022-10-02T16:35:17.230Z,1.23
2022-10-02T16:38:14.982Z,1.10
2022-10-02T16:41:18.984Z,1.13
2022-10-02T16:44:22.883Z,1.27
2022-10-02T16:47:26.123Z,1.10
2022-10-02T16:50:58.215Z,1.50
2022-10-02T16:53:49.791Z,1.50
2022-10-02T16:56:53.847Z,1.52
2022-10-02T16:59:52.195Z,1.50
2022-10-02T17:02:37.918Z,1.83
2022-10-02T17:05:28.374Z,2.22
2022-10-02T17:08:30.670Z,2.35
2022-10-02T17:11:45.894Z,2.20
2022-10-02T17:14:54.979Z,2.25
2022-10-02T17:17:43.473Z,2.30
2022-10-02T17:20:34.174Z,2.40
2022-10-02T17:23:37.234Z,2.65
2022-10-02T17:27:17.099Z,3.00
2022-10-02T17:30:23.801Z,3.05
2022-10-02T17:33:15.516Z,2.60
2022-10-02T17:36:24.306Z,2.47
2022-10-02T17:39:35.199Z,2.47
2022-10-02T17:42:32.978Z,2.72
2022-10-02T17:45:26.258Z,3.08
2022-10-02T17:48:23.971Z,2.45
2022-10-02T17:51:53.743Z,2.50
2022-10-02T17:55:11.682Z,2.83
2022-10-02T17:58:13.838Z,2.17
2022-10-02T18:01:38.225Z,2.25
2022-10-02T18:04:36.528Z,3.00
2022-10-02T18:07:59.987Z,2.75
2022-10-02T18:10:57.402Z,2.85
2022-10-02T18:14:02.088Z,2.33
2022-10-02T18:16:53.958Z,2.30
2022-10-02T18:19:42.937Z,2.97
2022-10-02T18:22:40.891Z,2.38
2022-10-02T18:25:49.127Z,2.53
2022-10-02T18:28:40.527Z,2.67
2022-10-02T18:31:54.116Z,2.53
2022-10-02T18:35:07.465Z,2.72
2022-10-02T18:38:11.068Z,2.97
2022-10-02T18:41:19.218Z,2.95
2022-10-02T18:44:23.076Z,2.70
2022-10-02T18:47:36.595Z,2.65
2022-10-02T18:50:51.605Z,3.10
2022-10-02T18:53:54.355Z,3.17
2022-10-02T18:56:51.856Z,3.17
2022-10-02T19:00:02.466Z,2.50
2022-10-02T19:03:30.311Z,2.75
2022-10-02T19:06:24.399Z,2.80
2022-10-02T19:09:11.022Z,2.40
2022-10-02T19:11:58.365Z,2.63
2022-10-02T19:14:46.395Z,2.70
2022-10-02T19:17:34.755Z,2.00
2022-10-02T19:20:48.255Z,2.30
2022-10-02T19:23:51.010Z,1.90
2022-10-02T19:26:44.067Z,2.50
2022-10-02T19:29:54.312Z,2.03
2022-10-02T19:32:41.685Z,2.13
2022-10-02T19:35:33.663Z,1.92
2022-10-02T19:38:37.747Z,2.10
2022-10-02T19:41:25.760Z,1.92
2022-10-02T19:44:29.278Z,2.20
2022-10-02T19:47:42.571Z,1.98
2022-10-02T19:50:42.861Z,2.25
2022-10-02T19:53:36.867Z,1.95
2022-10-02T19:56:32.129Z,2.50
2022-10-02T19:59:20.046Z,2.15
2022-10-02T20:02:33.982Z,1.75
2022-10-02T20:05:24.142Z,2.30
2022-10-02T20:08:16.850Z,2.85
2022-10-02T20:11:10.730Z,3.20
2022-10-02T20:14:10.785Z,2.78
2022-10-02T20:17:12.616Z,3.17
2022-10-02T20:20:02.493Z,2.85
2022-10-02T20:22:54.170Z,2.58
2022-10-02T20:25:53.713Z,2.40
2022-10-02T20:28:48.892Z,2.42
2022-10-02T20:31:53.083Z,2.30
2022-10-02T20:35:00.659Z,1.75
2022-10-02T20:37:49.009Z,2.38
2022-10-02T20:40:38.826Z,1.88
2022-10-02T20:43:40.810Z,2.13
2022-10-02T20:46:40.682Z,1.85
2022-10-02T20:49:54.798Z,1.90
2022-10-02T20:53:02.112Z,1.80
2022-10-02T20:56:05.865Z,1.95
2022-10-02T20:59:10.471Z,1.73
2022-10-02T21:01:55.941Z,1.73
2022-10-02T21:05:00.326Z,1.83
2022-10-02T21:07:48.760Z,1.70
2022-10-02T21:10:53.185Z,1.88
2022-10-02T21:14:13.130Z,1.90
2022-10-02T21:17:29.618Z,2.13
2022-10-02T21:20:53.582Z,1.80
2022-10-02T21:26:52.255Z,1.85
2022-10-02T21:30:03.578Z,2.00
2022-10-02T21:33:12.821Z,2.10
2022-10-02T21:36:21.610Z,1.95
2022-10-02T21:39:28.525Z,2.25
2022-10-02T21:42:34.907Z,1.90
2022-10-02T21:45:24.634Z,2.05
2022-10-02T21:48:31.869Z,2.28
2022-10-02T21:51:52.876Z,2.17
2022-10-02T21:54:47.371Z,1.70
2022-10-02T21:57:57.611Z,2.10
2022-10-02T22:01:14.358Z,2.28
2022-10-02T22:04:29.970Z,2.30
2022-10-02T22:07:36.040Z,1.70
2022-10-02T22:10:47.526Z,1.98
2022-10-02T22:13:36.918Z,1.60
2022-10-02T22:16:29.010Z,1.80
2022-10-02T22:19:29.629Z,2.10
2022-10-02T22:22:36.738Z,2.40
2022-10-02T22:25:28.608Z,1.75
2022-10-02T22:28:14.159Z,2.28
2022-10-02T22:31:30.890Z,2.30
2022-10-02T22:34:28.666Z,2.25
2022-10-02T22:37:49.551Z,2.20
2022-10-02T22:41:10.894Z,2.08
2022-10-02T22:44:06.818Z,2.17
2022-10-02T22:47:18.135Z,2.47
2022-10-02T22:50:10.359Z,2.67
2022-10-02T22:53:00.107Z,1.85
2022-10-02T22:55:52.119Z,1.90
2022-10-02T22:58:59.060Z,2.15
2022-10-02T23:02:08.201Z,2.10
2022-10-02T23:05:23.384Z,2.10
2022-10-02T23:08:34.417Z,2.35
2022-10-02T23:11:38.464Z,1.98
2022-10-02T23:14:55.258Z,2.22
2022-10-02T23:17:51.850Z,2.08
2022-10-02T23:20:52.815Z,1.75
2022-10-02T23:23:54.335Z,2.40
2022-10-02T23:27:01.824Z,2.30
2022-10-02T23:29:57.767Z,2.33
2022-10-02T23:32:47.522Z,2.30
2022-10-02T23:35:48.890Z,2.40
2022-10-02T23:38:49.374Z,2.40
2022-10-02T23:41:47.483Z,2.17
2022-10-02T23:44:43.038Z,1.95
2022-10-02T23:47:57.139Z,2.08
2022-10-02T23:51:08.661Z,2.25
2022-10-02T23:54:04.143Z,2.00
2022-10-02T23:56:52.997Z,2.50
